sensor_id;sensor_type;location;lat;lon;timestamp;pressure;altitude;pressure_sealevel;temperature;humidity
64453;BME280;50813;52.654;6.766;2023-04-19T00:00:26;102888.00000000001;;;9.46;91.21
64453;BME280;50813;52.654;6.766;2023-04-19T00:03:38;102882.0;;;9.43;91.08
64453;BME280;50813;52.654;6.766;2023-04-19T00:05:15;102888.00000000001;;;9.3;91.49
64453;BME280;50813;52.654;6.766;2023-04-19T00:06:51;102883.99999999999;;;9.33;91.31
64453;BME280;50813;52.654;6.766;2023-04-19T00:08:27;102882.0;;;9.39;91.72
64453;BME280;50813;52.654;6.766;2023-04-19T00:11:42;102886.99999999999;;;9.41;91.45
64453;BME280;50813;52.654;6.766;2023-04-19T00:13:18;102888.00000000001;;;9.44;90.43
64453;BME280;50813;52.654;6.766;2023-04-19T00:14:54;102883.0;;;9.47;90.61
64453;BME280;50813;52.654;6.766;2023-04-19T00:18:06;102886.99999999999;;;9.23;91.74
64453;BME280;50813;52.654;6.766;2023-04-19T00:19:43;102889.00000000001;;;9.38;91.67
64453;BME280;50813;52.654;6.766;2023-04-19T00:21:19;102878.0;;;9.28;91.95
64453;BME280;50813;52.654;6.766;2023-04-19T00:24:31;102882.0;;;9.56;91.15
64453;BME280;50813;52.654;6.766;2023-04-19T00:26:07;102882.0;;;9.53;91.1
64453;BME280;50813;52.654;6.766;2023-04-19T00:27:43;102875.0;;;9.4;91.42
64453;BME280;50813;52.654;6.766;2023-04-19T00:29:19;102872.0;;;9.56;90.63
64453;BME280;50813;52.654;6.766;2023-04-19T00:32:32;102876.0;;;9.56;90.2
64453;BME280;50813;52.654;6.766;2023-04-19T00:34:09;102871.0;;;9.48;90.27
64453;BME280;50813;52.654;6.766;2023-04-19T00:35:45;102873.0;;;9.58;89.87
64453;BME280;50813;52.654;6.766;2023-04-19T00:38:58;102872.0;;;9.5;90.28
64453;BME280;50813;52.654;6.766;2023-04-19T00:40:35;102868.0;;;9.53;90.08
64453;BME280;50813;52.654;6.766;2023-04-19T00:42:11;102869.0;;;9.57;90.11
64453;BME280;50813;52.654;6.766;2023-04-19T00:45:24;102868.0;;;9.58;89.63
64453;BME280;50813;52.654;6.766;2023-04-19T00:47:01;102871.0;;;9.81;88.64
64453;BME280;50813;52.654;6.766;2023-04-19T00:48:37;102872.0;;;9.74;88.57
64453;BME280;50813;52.654;6.766;2023-04-19T00:50:13;102870.0;;;9.55;89.02
64453;BME280;50813;52.654;6.766;2023-04-19T00:53:26;102867.0;;;9.73;88.64
64453;BME280;50813;52.654;6.766;2023-04-19T00:55:03;102865.00000000001;;;9.58;89.09
64453;BME280;50813;52.654;6.766;2023-04-19T00:56:39;102863.00000000001;;;9.56;88.93
64453;BME280;50813;52.654;6.766;2023-04-19T00:59:53;102864.00000000001;;;9.56;89.02
64453;BME280;50813;52.654;6.766;2023-04-19T01:01:30;102866.00000000001;;;9.66;88.25
64453;BME280;50813;52.654;6.766;2023-04-19T01:03:06;102867.0;;;9.73;87.94
64453;BME280;50813;52.654;6.766;2023-04-19T01:06:18;102867.0;;;9.65;87.79
64453;BME280;50813;52.654;6.766;2023-04-19T01:07:54;102867.0;;;9.53;88.2
64453;BME280;50813;52.654;6.766;2023-04-19T01:09:30;102864.00000000001;;;9.65;87.77
64453;BME280;50813;52.654;6.766;2023-04-19T01:11:07;102866.00000000001;;;9.74;87.45
64453;BME280;50813;52.654;6.766;2023-04-19T01:14:19;102859.99999999999;;;9.61;87.79
64453;BME280;50813;52.654;6.766;2023-04-19T01:15:56;102867.0;;;9.64;87.05
64453;BME280;50813;52.654;6.766;2023-04-19T01:17:33;102865.00000000001;;;9.58;87.0
64453;BME280;50813;52.654;6.766;2023-04-19T01:20:45;102866.00000000001;;;9.51;87.12
64453;BME280;50813;52.654;6.766;2023-04-19T01:22:21;102867.0;;;9.6;86.66
64453;BME280;50813;52.654;6.766;2023-04-19T01:23:57;102858.99999999999;;;9.72;86.37
64453;BME280;50813;52.654;6.766;2023-04-19T01:27:11;102865.00000000001;;;9.65;86.08
64453;BME280;50813;52.654;6.766;2023-04-19T01:28:47;102867.0;;;9.71;86.1
64453;BME280;50813;52.654;6.766;2023-04-19T01:30:23;102868.0;;;9.56;86.04
64453;BME280;50813;52.654;6.766;2023-04-19T01:33:36;102869.0;;;9.56;85.77
64453;BME280;50813;52.654;6.766;2023-04-19T01:35:12;102868.0;;;9.58;85.53
64453;BME280;50813;52.654;6.766;2023-04-19T01:36:48;102873.0;;;9.63;85.3
64453;BME280;50813;52.654;6.766;2023-04-19T01:38:24;102867.0;;;9.69;84.84
64453;BME280;50813;52.654;6.766;2023-04-19T01:41:38;102870.0;;;9.72;84.68
64453;BME280;50813;52.654;6.766;2023-04-19T01:43:15;102868.0;;;9.72;84.16
64453;BME280;50813;52.654;6.766;2023-04-19T01:44:52;102873.0;;;9.73;84.0
64453;BME280;50813;52.654;6.766;2023-04-19T01:48:05;102874.0;;;9.56;83.53
64453;BME280;50813;52.654;6.766;2023-04-19T01:49:41;102869.0;;;9.56;83.84
64453;BME280;50813;52.654;6.766;2023-04-19T01:51:17;102871.0;;;9.49;83.4
64453;BME280;50813;52.654;6.766;2023-04-19T01:54:30;102877.0;;;9.63;81.96
64453;BME280;50813;52.654;6.766;2023-04-19T01:56:06;102874.0;;;9.57;81.8
64453;BME280;50813;52.654;6.766;2023-04-19T01:57:43;102878.0;;;9.72;81.38
64453;BME280;50813;52.654;6.766;2023-04-19T01:59:19;102874.0;;;9.74;81.02
64453;BME280;50813;52.654;6.766;2023-04-19T02:02:31;102877.0;;;9.66;81.12
64453;BME280;50813;52.654;6.766;2023-04-19T02:04:08;102877.0;;;9.71;81.38
64453;BME280;50813;52.654;6.766;2023-04-19T02:05:45;102882.0;;;9.69;81.33
64453;BME280;50813;52.654;6.766;2023-04-19T02:08:57;102877.0;;;9.72;81.72
64453;BME280;50813;52.654;6.766;2023-04-19T02:10:33;102879.0;;;9.64;81.39
64453;BME280;50813;52.654;6.766;2023-04-19T02:12:09;102878.0;;;9.61;81.11
64453;BME280;50813;52.654;6.766;2023-04-19T02:15:22;102874.0;;;9.58;80.89
64453;BME280;50813;52.654;6.766;2023-04-19T02:16:58;102873.0;;;9.64;80.34
64453;BME280;50813;52.654;6.766;2023-04-19T02:18:34;102871.0;;;9.64;79.77
64453;BME280;50813;52.654;6.766;2023-04-19T02:20:10;102871.0;;;9.56;79.81
64453;BME280;50813;52.654;6.766;2023-04-19T02:23:23;102873.0;;;9.66;79.49
64453;BME280;50813;52.654;6.766;2023-04-19T02:24:59;102870.0;;;9.56;78.33
64453;BME280;50813;52.654;6.766;2023-04-19T02:26:36;102871.0;;;9.61;77.74
64453;BME280;50813;52.654;6.766;2023-04-19T02:29:48;102870.0;;;9.55;78.19
64453;BME280;50813;52.654;6.766;2023-04-19T02:31:24;102870.0;;;9.64;77.52
64453;BME280;50813;52.654;6.766;2023-04-19T02:33:00;102871.0;;;9.73;76.91
64453;BME280;50813;52.654;6.766;2023-04-19T02:36:12;102870.0;;;9.63;76.61
64453;BME280;50813;52.654;6.766;2023-04-19T02:37:48;102868.0;;;9.55;76.61
64453;BME280;50813;52.654;6.766;2023-04-19T02:39:25;102866.00000000001;;;9.48;77.09
64453;BME280;50813;52.654;6.766;2023-04-19T02:42:38;102872.0;;;9.32;77.13
64453;BME280;50813;52.654;6.766;2023-04-19T02:44:14;102876.0;;;9.36;76.7
64453;BME280;50813;52.654;6.766;2023-04-19T02:45:50;102877.0;;;9.3;76.86
64453;BME280;50813;52.654;6.766;2023-04-19T02:47:26;102873.0;;;9.25;76.83
64453;BME280;50813;52.654;6.766;2023-04-19T02:50:38;102878.0;;;9.11;76.59
64453;BME280;50813;52.654;6.766;2023-04-19T02:52:15;102883.0;;;9.21;75.8
64453;BME280;50813;52.654;6.766;2023-04-19T02:53:51;102882.0;;;9.14;75.94
64453;BME280;50813;52.654;6.766;2023-04-19T02:57:03;102883.0;;;9.17;75.64
64453;BME280;50813;52.654;6.766;2023-04-19T02:58:39;102881.0;;;9.08;75.24
64453;BME280;50813;52.654;6.766;2023-04-19T03:00:16;102890.00000000001;;;9.06;75.19
64453;BME280;50813;52.654;6.766;2023-04-19T03:03:29;102891.00000000001;;;9.08;75.05
64453;BME280;50813;52.654;6.766;2023-04-19T03:05:05;102888.00000000001;;;9.15;74.47
64453;BME280;50813;52.654;6.766;2023-04-19T03:06:42;102884.99999999999;;;9.08;74.11
64453;BME280;50813;52.654;6.766;2023-04-19T03:08:18;102890.00000000001;;;9.09;73.94
64453;BME280;50813;52.654;6.766;2023-04-19T03:11:30;102883.99999999999;;;9.11;73.47
64453;BME280;50813;52.654;6.766;2023-04-19T03:13:06;102883.0;;;9.1;72.98
64453;BME280;50813;52.654;6.766;2023-04-19T03:14:42;102883.99999999999;;;9.1;73.08
64453;BME280;50813;52.654;6.766;2023-04-19T03:17:55;102884.99999999999;;;9.16;72.74
64453;BME280;50813;52.654;6.766;2023-04-19T03:19:31;102884.99999999999;;;9.06;71.19
64453;BME280;50813;52.654;6.766;2023-04-19T03:21:07;102881.0;;;9.09;71.0
64453;BME280;50813;52.654;6.766;2023-04-19T03:24:26;102877.0;;;9.15;71.27
64453;BME280;50813;52.654;6.766;2023-04-19T03:26:02;102881.0;;;9.14;70.31
64453;BME280;50813;52.654;6.766;2023-04-19T03:27:39;102882.0;;;9.06;68.86
64453;BME280;50813;52.654;6.766;2023-04-19T03:29:15;102882.0;;;9.14;68.08
64453;BME280;50813;52.654;6.766;2023-04-19T03:32:28;102883.0;;;9.09;67.41
64453;BME280;50813;52.654;6.766;2023-04-19T03:34:04;102881.0;;;9.15;66.86
64453;BME280;50813;52.654;6.766;2023-04-19T03:35:40;102889.00000000001;;;9.09;66.7
64453;BME280;50813;52.654;6.766;2023-04-19T03:38:52;102892.0;;;8.96;67.5
64453;BME280;50813;52.654;6.766;2023-04-19T03:40:29;102891.00000000001;;;8.91;69.47
64453;BME280;50813;52.654;6.766;2023-04-19T03:42:05;102892.0;;;8.76;70.69
64453;BME280;50813;52.654;6.766;2023-04-19T03:45:18;102892.0;;;8.66;69.83
64453;BME280;50813;52.654;6.766;2023-04-19T03:46:54;102889.00000000001;;;8.52;69.94
64453;BME280;50813;52.654;6.766;2023-04-19T03:48:30;102892.0;;;8.32;70.33
64453;BME280;50813;52.654;6.766;2023-04-19T03:50:07;102895.0;;;8.2;70.23
64453;BME280;50813;52.654;6.766;2023-04-19T03:53:19;102892.0;;;7.99;69.91
64453;BME280;50813;52.654;6.766;2023-04-19T03:54:55;102889.00000000001;;;7.95;69.92
64453;BME280;50813;52.654;6.766;2023-04-19T03:56:31;102892.0;;;7.74;69.67
64453;BME280;50813;52.654;6.766;2023-04-19T03:59:44;102893.0;;;7.64;70.22
64453;BME280;50813;52.654;6.766;2023-04-19T04:01:21;102886.99999999999;;;7.82;69.33
64453;BME280;50813;52.654;6.766;2023-04-19T04:02:57;102888.00000000001;;;7.66;69.78
64453;BME280;50813;52.654;6.766;2023-04-19T04:06:09;102893.0;;;7.76;69.58
64453;BME280;50813;52.654;6.766;2023-04-19T04:07:45;102895.0;;;7.58;69.81
64453;BME280;50813;52.654;6.766;2023-04-19T04:09:21;102896.0;;;7.56;70.3
64453;BME280;50813;52.654;6.766;2023-04-19T04:12:34;102895.0;;;7.44;70.94
64453;BME280;50813;52.654;6.766;2023-04-19T04:14:10;102902.0;;;7.22;70.58
64453;BME280;50813;52.654;6.766;2023-04-19T04:15:46;102894.0;;;7.14;70.8
64453;BME280;50813;52.654;6.766;2023-04-19T04:17:22;102894.0;;;7.21;70.66
64453;BME280;50813;52.654;6.766;2023-04-19T04:20:34;102901.0;;;6.89;71.49
64453;BME280;50813;52.654;6.766;2023-04-19T04:22:10;102906.0;;;6.98;71.61
64453;BME280;50813;52.654;6.766;2023-04-19T04:23:46;102904.0;;;6.82;71.39
64453;BME280;50813;52.654;6.766;2023-04-19T04:26:59;102906.0;;;6.88;71.08
64453;BME280;50813;52.654;6.766;2023-04-19T04:28:35;102907.0;;;7.06;70.77
64453;BME280;50813;52.654;6.766;2023-04-19T04:30:11;102911.99999999999;;;6.84;71.69
64453;BME280;50813;52.654;6.766;2023-04-19T04:33:23;102917.0;;;6.87;71.53
64453;BME280;50813;52.654;6.766;2023-04-19T04:35:00;102917.0;;;6.76;72.05
64453;BME280;50813;52.654;6.766;2023-04-19T04:36:36;102917.0;;;6.77;72.05
64453;BME280;50813;52.654;6.766;2023-04-19T04:39:47;102917.0;;;6.73;71.86
64453;BME280;50813;52.654;6.766;2023-04-19T04:41:22;102917.0;;;6.84;72.0
64453;BME280;50813;52.654;6.766;2023-04-19T04:42:58;102922.0;;;6.74;72.47
64453;BME280;50813;52.654;6.766;2023-04-19T04:44:33;102923.0;;;6.87;72.2
64453;BME280;50813;52.654;6.766;2023-04-19T04:47:45;102925.0;;;6.68;72.58
64453;BME280;50813;52.654;6.766;2023-04-19T04:49:22;102924.0;;;6.56;73.27
64453;BME280;50813;52.654;6.766;2023-04-19T04:50:58;102926.0;;;6.68;73.33
64453;BME280;50813;52.654;6.766;2023-04-19T04:54:09;102927.0;;;6.64;72.81
64453;BME280;50813;52.654;6.766;2023-04-19T04:55:44;102931.0;;;6.62;73.38
64453;BME280;50813;52.654;6.766;2023-04-19T04:57:21;102929.0;;;6.63;73.67
64453;BME280;50813;52.654;6.766;2023-04-19T05:00:32;102930.0;;;6.73;73.86
64453;BME280;50813;52.654;6.766;2023-04-19T05:02:08;102929.0;;;6.7;74.08
64453;BME280;50813;52.654;6.766;2023-04-19T05:03:44;102933.0;;;6.68;75.16
64453;BME280;50813;52.654;6.766;2023-04-19T05:06:55;102936.99999999999;;;6.62;75.44
64453;BME280;50813;52.654;6.766;2023-04-19T05:08:31;102936.99999999999;;;6.53;76.16
64453;BME280;50813;52.654;6.766;2023-04-19T05:10:07;102939.00000000001;;;6.47;76.14
64453;BME280;50813;52.654;6.766;2023-04-19T05:11:44;102942.0;;;6.45;76.38
64453;BME280;50813;52.654;6.766;2023-04-19T05:14:56;102941.00000000001;;;6.47;76.02
64453;BME280;50813;52.654;6.766;2023-04-19T05:16:32;102933.99999999999;;;6.45;76.66
64453;BME280;50813;52.654;6.766;2023-04-19T05:22:57;102934.99999999999;;;6.44;77.09
64453;BME280;50813;52.654;6.766;2023-04-19T05:27:46;102939.00000000001;;;6.5;77.13
64453;BME280;50813;52.654;6.766;2023-04-19T05:29:22;102933.99999999999;;;6.15;77.41
64453;BME280;50813;52.654;6.766;2023-04-19T05:32:34;102938.00000000001;;;6.37;78.08
64453;BME280;50813;52.654;6.766;2023-04-19T05:34:10;102936.99999999999;;;6.57;76.88
64453;BME280;50813;52.654;6.766;2023-04-19T05:35:46;102940.00000000001;;;6.55;76.83
64453;BME280;50813;52.654;6.766;2023-04-19T05:37:23;102934.99999999999;;;6.45;76.44
64453;BME280;50813;52.654;6.766;2023-04-19T05:40:35;102943.0;;;6.42;76.16
64453;BME280;50813;52.654;6.766;2023-04-19T05:42:11;102942.0;;;6.59;76.03
64453;BME280;50813;52.654;6.766;2023-04-19T05:43:47;102944.0;;;6.44;75.22
64453;BME280;50813;52.654;6.766;2023-04-19T05:47:01;102943.0;;;6.42;75.42
64453;BME280;50813;52.654;6.766;2023-04-19T05:48:37;102943.0;;;6.67;74.55
64453;BME280;50813;52.654;6.766;2023-04-19T05:50:13;102939.00000000001;;;6.83;73.0
64453;BME280;50813;52.654;6.766;2023-04-19T05:53:26;102941.00000000001;;;6.9;72.97
64453;BME280;50813;52.654;6.766;2023-04-19T05:55:04;102938.00000000001;;;7.07;72.52
64453;BME280;50813;52.654;6.766;2023-04-19T05:56:40;102933.99999999999;;;7.17;71.2
64453;BME280;50813;52.654;6.766;2023-04-19T05:58:17;102933.0;;;7.21;70.67
64453;BME280;50813;52.654;6.766;2023-04-19T06:01:29;102933.99999999999;;;7.38;69.87
64453;BME280;50813;52.654;6.766;2023-04-19T06:03:07;102933.99999999999;;;7.36;70.14
64453;BME280;50813;52.654;6.766;2023-04-19T06:04:44;102932.0;;;7.41;68.53
64453;BME280;50813;52.654;6.766;2023-04-19T06:07:58;102936.99999999999;;;7.6;68.69
64453;BME280;50813;52.654;6.766;2023-04-19T06:09:34;102934.99999999999;;;7.82;67.83
64453;BME280;50813;52.654;6.766;2023-04-19T06:11:10;102933.0;;;7.82;67.39
64453;BME280;50813;52.654;6.766;2023-04-19T06:14:22;102934.99999999999;;;7.83;65.86
64453;BME280;50813;52.654;6.766;2023-04-19T06:16:00;102931.0;;;8.03;66.34
64453;BME280;50813;52.654;6.766;2023-04-19T06:17:37;102940.00000000001;;;8.11;64.75
64453;BME280;50813;52.654;6.766;2023-04-19T06:19:13;102939.00000000001;;;7.89;64.45
64453;BME280;50813;52.654;6.766;2023-04-19T06:22:27;102941.00000000001;;;7.9;63.04
64453;BME280;50813;52.654;6.766;2023-04-19T06:24:05;102930.0;;;8.11;64.52
64453;BME280;50813;52.654;6.766;2023-04-19T06:25:42;102931.0;;;8.26;63.68
64453;BME280;50813;52.654;6.766;2023-04-19T06:28:54;102931.0;;;8.47;63.36
64453;BME280;50813;52.654;6.766;2023-04-19T06:30:30;102938.00000000001;;;8.53;62.57
64453;BME280;50813;52.654;6.766;2023-04-19T06:32:05;102933.99999999999;;;8.73;61.95
64453;BME280;50813;52.654;6.766;2023-04-19T06:35:18;102939.00000000001;;;8.83;61.42
64453;BME280;50813;52.654;6.766;2023-04-19T06:36:54;102932.0;;;8.81;59.99
64453;BME280;50813;52.654;6.766;2023-04-19T06:38:31;102931.0;;;8.98;60.64
64453;BME280;50813;52.654;6.766;2023-04-19T06:40:08;102930.0;;;9.16;60.34
64453;BME280;50813;52.654;6.766;2023-04-19T06:43:20;102933.0;;;9.22;59.38
64453;BME280;50813;52.654;6.766;2023-04-19T06:44:56;102925.0;;;9.25;58.88
64453;BME280;50813;52.654;6.766;2023-04-19T06:46:32;102924.0;;;9.32;59.23
64453;BME280;50813;52.654;6.766;2023-04-19T06:49:44;102929.0;;;9.41;57.9
64453;BME280;50813;52.654;6.766;2023-04-19T06:51:21;102921.0;;;9.39;57.55
64453;BME280;50813;52.654;6.766;2023-04-19T06:52:57;102925.0;;;9.58;57.62
64453;BME280;50813;52.654;6.766;2023-04-19T06:56:09;102932.0;;;9.57;56.98
64453;BME280;50813;52.654;6.766;2023-04-19T06:57:45;102933.0;;;9.56;57.6
64453;BME280;50813;52.654;6.766;2023-04-19T06:59:22;102930.0;;;9.44;55.96
64453;BME280;50813;52.654;6.766;2023-04-19T07:02:35;102930.0;;;9.65;57.82
64453;BME280;50813;52.654;6.766;2023-04-19T07:04:12;102933.99999999999;;;9.78;57.3
64453;BME280;50813;52.654;6.766;2023-04-19T07:05:48;102933.0;;;10.02;57.75
64453;BME280;50813;52.654;6.766;2023-04-19T07:07:24;102938.00000000001;;;9.89;55.57
64453;BME280;50813;52.654;6.766;2023-04-19T07:10:37;102933.99999999999;;;10.01;55.12
64453;BME280;50813;52.654;6.766;2023-04-19T07:12:14;102933.0;;;10.22;55.51
64453;BME280;50813;52.654;6.766;2023-04-19T07:13:50;102933.0;;;10.15;54.16
64453;BME280;50813;52.654;6.766;2023-04-19T07:17:03;102930.0;;;10.07;53.64
64453;BME280;50813;52.654;6.766;2023-04-19T07:18:39;102925.0;;;10.06;53.75
64453;BME280;50813;52.654;6.766;2023-04-19T07:20:15;102926.0;;;10.31;53.9
64453;BME280;50813;52.654;6.766;2023-04-19T07:23:27;102926.0;;;10.41;53.67
64453;BME280;50813;52.654;6.766;2023-04-19T07:25:04;102931.0;;;10.65;53.47
64453;BME280;50813;52.654;6.766;2023-04-19T07:26:41;102928.0;;;10.61;53.18
64453;BME280;50813;52.654;6.766;2023-04-19T07:28:17;102923.0;;;10.77;53.72
64453;BME280;50813;52.654;6.766;2023-04-19T07:31:29;102921.0;;;10.79;52.31
64453;BME280;50813;52.654;6.766;2023-04-19T07:33:06;102919.0;;;11.08;50.75
64453;BME280;50813;52.654;6.766;2023-04-19T07:34:42;102911.99999999999;;;10.98;51.52
64453;BME280;50813;52.654;6.766;2023-04-19T07:37:54;102911.99999999999;;;10.88;51.18
64453;BME280;50813;52.654;6.766;2023-04-19T07:39:31;102915.00000000001;;;10.98;50.84
64453;BME280;50813;52.654;6.766;2023-04-19T07:41:07;102915.00000000001;;;11.13;52.04
64453;BME280;50813;52.654;6.766;2023-04-19T07:44:19;102911.99999999999;;;11.41;51.01
64453;BME280;50813;52.654;6.766;2023-04-19T07:45:55;102911.99999999999;;;11.15;48.76
64453;BME280;50813;52.654;6.766;2023-04-19T07:47:31;102908.0;;;11.07;50.1
64453;BME280;50813;52.654;6.766;2023-04-19T07:49:07;102913.00000000001;;;10.74;48.25
64453;BME280;50813;52.654;6.766;2023-04-19T07:52:20;102906.0;;;10.82;49.45
64453;BME280;50813;52.654;6.766;2023-04-19T07:53:56;102911.99999999999;;;10.73;47.51
64453;BME280;50813;52.654;6.766;2023-04-19T07:55:32;102913.00000000001;;;10.33;47.52
64453;BME280;50813;52.654;6.766;2023-04-19T07:58:44;102913.00000000001;;;10.61;48.54
64453;BME280;50813;52.654;6.766;2023-04-19T08:00:20;102913.00000000001;;;10.83;48.88
64453;BME280;50813;52.654;6.766;2023-04-19T08:01:56;102914.00000000001;;;10.78;46.32
64453;BME280;50813;52.654;6.766;2023-04-19T08:05:10;102907.0;;;10.94;46.93
64453;BME280;50813;52.654;6.766;2023-04-19T08:06:46;102901.0;;;10.92;47.44
64453;BME280;50813;52.654;6.766;2023-04-19T08:08:23;102899.0;;;10.89;47.31
64453;BME280;50813;52.654;6.766;2023-04-19T08:11:35;102903.0;;;11.03;48.25
64453;BME280;50813;52.654;6.766;2023-04-19T08:13:11;102901.0;;;11.09;47.1
64453;BME280;50813;52.654;6.766;2023-04-19T08:14:47;102903.0;;;11.11;45.82
64453;BME280;50813;52.654;6.766;2023-04-19T08:16:23;102897.0;;;11.16;46.37
64453;BME280;50813;52.654;6.766;2023-04-19T08:19:36;102900.0;;;11.06;47.26
64453;BME280;50813;52.654;6.766;2023-04-19T08:21:12;102898.0;;;11.37;47.95
64453;BME280;50813;52.654;6.766;2023-04-19T08:22:48;102892.0;;;11.27;45.63
64453;BME280;50813;52.654;6.766;2023-04-19T08:26:00;102897.0;;;11.33;46.94
64453;BME280;50813;52.654;6.766;2023-04-19T08:27:36;102904.0;;;11.57;47.53
64453;BME280;50813;52.654;6.766;2023-04-19T08:29:12;102903.0;;;11.71;45.79
64453;BME280;50813;52.654;6.766;2023-04-19T08:32:25;102908.99999999999;;;11.37;42.68
64453;BME280;50813;52.654;6.766;2023-04-19T08:34:01;102904.0;;;11.57;44.05
64453;BME280;50813;52.654;6.766;2023-04-19T08:35:37;102897.0;;;11.31;42.98
64453;BME280;50813;52.654;6.766;2023-04-19T08:37:14;102890.00000000001;;;11.27;44.59
64453;BME280;50813;52.654;6.766;2023-04-19T08:40:29;102899.0;;;11.27;43.12
64453;BME280;50813;52.654;6.766;2023-04-19T08:42:07;102893.0;;;11.14;43.14
64453;BME280;50813;52.654;6.766;2023-04-19T08:43:44;102881.0;;;11.3;43.5
64453;BME280;50813;52.654;6.766;2023-04-19T08:47:02;102891.00000000001;;;11.07;42.91
64453;BME280;50813;52.654;6.766;2023-04-19T08:48:39;102896.0;;;11.34;42.9
64453;BME280;50813;52.654;6.766;2023-04-19T08:50:19;102886.99999999999;;;11.21;42.53
64453;BME280;50813;52.654;6.766;2023-04-19T08:51:57;102886.99999999999;;;11.36;41.7
64453;BME280;50813;52.654;6.766;2023-04-19T08:55:09;102884.99999999999;;;11.29;39.64
64453;BME280;50813;52.654;6.766;2023-04-19T08:56:46;102883.99999999999;;;11.19;42.23
64453;BME280;50813;52.654;6.766;2023-04-19T08:58:22;102884.99999999999;;;11.36;41.73
64453;BME280;50813;52.654;6.766;2023-04-19T09:01:35;102878.0;;;11.41;40.21
64453;BME280;50813;52.654;6.766;2023-04-19T09:03:11;102892.0;;;11.43;39.47
64453;BME280;50813;52.654;6.766;2023-04-19T09:04:47;102881.0;;;11.46;40.85
64453;BME280;50813;52.654;6.766;2023-04-19T09:08:20;102878.0;;;11.62;41.7
64453;BME280;50813;52.654;6.766;2023-04-19T09:10:04;102880.0;;;11.84;41.68
64453;BME280;50813;52.654;6.766;2023-04-19T09:11:41;102878.0;;;11.93;41.73
64453;BME280;50813;52.654;6.766;2023-04-19T09:13:17;102878.0;;;12.07;41.11
64453;BME280;50813;52.654;6.766;2023-04-19T09:14:53;102882.0;;;11.95;39.96
64453;BME280;50813;52.654;6.766;2023-04-19T09:18:08;102875.0;;;11.96;38.81
64453;BME280;50813;52.654;6.766;2023-04-19T09:19:46;102874.0;;;12.15;39.57
64453;BME280;50813;52.654;6.766;2023-04-19T09:21:27;102872.0;;;12.21;39.6
64453;BME280;50813;52.654;6.766;2023-04-19T09:24:45;102866.00000000001;;;12.24;39.44
64453;BME280;50813;52.654;6.766;2023-04-19T09:26:21;102858.99999999999;;;12.34;40.29
64453;BME280;50813;52.654;6.766;2023-04-19T09:28:08;102857.0;;;12.19;38.39
64453;BME280;50813;52.654;6.766;2023-04-19T09:29:52;102859.99999999999;;;12.26;39.17
64453;BME280;50813;52.654;6.766;2023-04-19T09:33:07;102852.0;;;12.24;37.99
64453;BME280;50813;52.654;6.766;2023-04-19T09:34:50;102856.0;;;12.38;38.21
64453;BME280;50813;52.654;6.766;2023-04-19T09:36:27;102856.0;;;12.39;38.35
64453;BME280;50813;52.654;6.766;2023-04-19T09:38:05;102852.0;;;12.59;37.94
64453;BME280;50813;52.654;6.766;2023-04-19T09:41:17;102854.0;;;12.63;36.96
64453;BME280;50813;52.654;6.766;2023-04-19T09:42:53;102847.0;;;12.82;39.21
64453;BME280;50813;52.654;6.766;2023-04-19T09:44:29;102848.0;;;12.74;36.6
64453;BME280;50813;52.654;6.766;2023-04-19T09:47:41;102841.00000000001;;;12.89;37.08
64453;BME280;50813;52.654;6.766;2023-04-19T09:49:20;102842.0;;;12.88;37.32
64453;BME280;50813;52.654;6.766;2023-04-19T09:50:58;102845.0;;;12.51;36.19
64453;BME280;50813;52.654;6.766;2023-04-19T09:52:36;102844.0;;;12.82;38.57
64453;BME280;50813;52.654;6.766;2023-04-19T09:55:51;102843.0;;;12.88;37.68
64453;BME280;50813;52.654;6.766;2023-04-19T09:57:27;102834.99999999999;;;12.9;37.26
64453;BME280;50813;52.654;6.766;2023-04-19T09:59:04;102831.0;;;12.74;37.4
64453;BME280;50813;52.654;6.766;2023-04-19T10:02:21;102830.0;;;12.77;37.17
64453;BME280;50813;52.654;6.766;2023-04-19T10:03:58;102832.0;;;13.01;37.89
64453;BME280;50813;52.654;6.766;2023-04-19T10:05:35;102830.0;;;12.87;37.1
64453;BME280;50813;52.654;6.766;2023-04-19T10:07:13;102822.0;;;12.71;38.87
64453;BME280;50813;52.654;6.766;2023-04-19T10:10:30;102823.0;;;12.78;38.64
64453;BME280;50813;52.654;6.766;2023-04-19T10:12:07;102822.0;;;13.15;40.35
64453;BME280;50813;52.654;6.766;2023-04-19T10:13:45;102818.0;;;13.33;40.81
64453;BME280;50813;52.654;6.766;2023-04-19T10:17:00;102817.0;;;13.59;39.51
64453;BME280;50813;52.654;6.766;2023-04-19T10:18:37;102820.0;;;13.6;38.67
64453;BME280;50813;52.654;6.766;2023-04-19T10:20:19;102811.99999999999;;;13.58;40.07
64453;BME280;50813;52.654;6.766;2023-04-19T10:21:57;102802.0;;;13.78;39.14
64453;BME280;50813;52.654;6.766;2023-04-19T10:25:11;102799.0;;;13.75;37.99
64453;BME280;50813;52.654;6.766;2023-04-19T10:27:23;102786.99999999999;;;13.97;38.06
64453;BME280;50813;52.654;6.766;2023-04-19T10:29:00;102795.0;;;13.71;37.46
64453;BME280;50813;52.654;6.766;2023-04-19T10:30:51;102798.0;;;13.85;37.39
64453;BME280;50813;52.654;6.766;2023-04-19T10:32:28;102791.00000000001;;;13.92;38.03
64453;BME280;50813;52.654;6.766;2023-04-19T10:35:49;102782.0;;;13.97;37.04
64453;BME280;50813;52.654;6.766;2023-04-19T10:37:25;102777.0;;;14.19;36.54
64453;BME280;50813;52.654;6.766;2023-04-19T10:39:01;102761.99999999999;;;14.28;34.46
64453;BME280;50813;52.654;6.766;2023-04-19T10:43:37;102764.00000000001;;;14.45;34.89
64453;BME280;50813;52.654;6.766;2023-04-19T10:45:46;102765.00000000001;;;14.53;33.47
64453;BME280;50813;52.654;6.766;2023-04-19T10:47:39;102761.99999999999;;;14.41;34.06
64453;BME280;50813;52.654;6.766;2023-04-19T10:49:16;102759.99999999999;;;14.49;34.11
64453;BME280;50813;52.654;6.766;2023-04-19T10:52:33;102756.0;;;14.35;33.44